Terminal Aerodrome Forecast
Issued by NWS

Home | Current Version | Previous Version | Text Only | Print | Product List | Glossary On
Versions: 1 2 3 4 5 6 7 8 9 10 11 12 13 14 15 16 17 18 19 20
821
FTUS44 KLZK 212347
TAFHRO
TAF
KHRO 212347Z 2200/2224 00000KT P6SM SCT009 BKN025 OVC030
     FM220400 00000KT P6SM FEW250
     FM220600 00000KT 2SM BR FEW002
     FM220800 25008KT 1/4SM FG OVC001
     FM221400 21006KT 3SM BR SCT010
     FM221700 19006KT P6SM SKC=

USA.gov is the U.S. government's official web portal to all federal, state and local government web resources and services.